Time;durP1;ratioP1;P1;durP2;ratioP2;P2;SDS_P1;SDS_P2;PMS_P1;PMS_P2;Temp;Humidity;BMP_temperature;BMP_pressure;BME280_temperature;BME280_humidity;BME280_pressure;Samples;Min_cycle;Max_cycle;Signal;HPM_P1;HPM_P2
2024/02/23 00:01:06;;;;;;;2.43;1.00;;;;;;;10.20;100.00;96619.00;5001362;28;20062;-79
2024/02/23 00:03:34;;;;;;;0.73;0.60;;;;;;;10.32;100.00;96555.63;4997950;28;20048;-77
2024/02/23 00:06:00;;;;;;;0.82;0.77;;;;;;;10.02;100.00;96466.53;4986127;28;20038;-78
2024/02/23 00:08:25;;;;;;;2.80;0.77;;;;;;;10.11;100.00;96424.16;4996018;28;20099;-77
2024/02/23 00:10:50;;;;;;;3.67;0.80;;;;;;;10.08;100.00;96345.56;5007072;28;20081;-76
2024/02/23 00:13:16;;;;;;;4.33;0.87;;;;;;;9.93;100.00;96322.38;4990103;28;20033;-79
2024/02/23 00:15:43;;;;;;;1.00;0.70;;;;;;;9.65;100.00;96225.16;4989367;28;20046;-79
2024/02/23 00:18:09;;;;;;;2.90;0.82;;;;;;;9.50;100.00;95895.06;5002593;28;20030;-77
2024/02/23 00:20:34;;;;;;;4.30;0.70;;;;;;;9.36;100.00;95611.97;5002502;28;20385;-76
2024/02/23 00:23:01;;;;;;;2.70;0.53;;;;;;;9.28;100.00;95510.41;5008472;28;20036;-76
2024/02/23 00:25:27;;;;;;;1.25;0.65;;;;;;;9.06;100.00;95510.09;5007474;28;20077;-76
2024/02/23 00:27:52;;;;;;;4.88;0.65;;;;;;;8.96;100.00;95459.66;5002810;28;20080;-76
2024/02/23 00:30:17;;;;;;;0.60;0.30;;;;;;;9.05;100.00;95524.47;5005057;28;20364;-78
2024/02/23 00:32:43;;;;;;;4.07;0.50;;;;;;;8.94;100.00;95502.47;5008908;28;20285;-77
2024/02/23 00:35:08;;;;;;;2.80;0.30;;;;;;;8.86;100.00;95498.56;4990552;28;20116;-77
2024/02/23 00:37:35;;;;;;;2.53;0.30;;;;;;;8.89;100.00;95542.41;5002868;28;20164;-78
2024/02/23 00:40:03;;;;;;;2.45;0.57;;;;;;;8.76;100.00;95527.13;5008474;28;20034;-76
2024/02/23 00:42:30;;;;;;;1.58;0.35;;;;;;;8.63;100.00;95432.84;5008742;28;20033;-78
2024/02/23 00:44:55;;;;;;;1.65;0.38;;;;;;;8.84;100.00;95397.00;5008459;28;20037;-78
2024/02/23 00:47:20;;;;;;;0.90;0.50;;;;;;;8.82;100.00;95460.31;5007110;28;20179;-76
2024/02/23 00:49:46;;;;;;;0.93;0.30;;;;;;;8.75;100.00;95462.50;5002621;28;20057;-75
2024/02/23 00:52:11;;;;;;;1.00;0.40;;;;;;;8.74;100.00;95388.38;4991317;28;20049;-75
2024/02/23 00:54:36;;;;;;;1.23;0.50;;;;;;;8.58;100.00;95335.34;5006669;28;20374;-77
2024/02/23 00:57:02;;;;;;;2.23;0.50;;;;;;;8.71;100.00;95436.75;5006674;28;20069;-77
2024/02/23 00:59:27;;;;;;;1.17;0.40;;;;;;;8.56;100.00;95481.00;5006424;28;20029;-77
2024/02/23 01:01:52;;;;;;;1.63;0.50;;;;;;;8.22;100.00;95606.59;4990418;28;20033;-76
2024/02/23 01:04:18;;;;;;;1.23;0.60;;;;;;;8.22;100.00;95847.53;5007448;28;20707;-77
2024/02/23 01:06:43;;;;;;;2.43;0.30;;;;;;;8.14;100.00;95818.84;5007701;28;20029;-76
2024/02/23 01:09:08;;;;;;;1.10;0.40;;;;;;;8.03;100.00;95892.44;5005869;28;20028;-77
2024/02/23 01:11:34;;;;;;;0.70;0.60;;;;;;;8.09;100.00;95944.47;5007139;28;20119;-77
2024/02/23 01:13:59;;;;;;;0.97;0.50;;;;;;;8.15;100.00;95985.94;5006007;28;20120;-77
2024/02/23 01:16:24;;;;;;;1.23;0.50;;;;;;;7.97;100.00;95936.75;5006887;28;20481;-77
2024/02/23 01:18:50;;;;;;;0.40;0.30;;;;;;;7.97;100.00;95975.81;5001206;28;20022;-77
2024/02/23 01:21:15;;;;;;;2.53;0.47;;;;;;;8.00;100.00;96135.41;4999048;28;20034;-76
2024/02/23 01:23:40;;;;;;;1.00;0.50;;;;;;;7.78;100.00;96426.81;5006763;28;20095;-75
2024/02/23 01:26:06;;;;;;;0.30;0.23;;;;;;;7.54;100.00;96626.13;4989920;28;20034;-75
2024/02/23 01:28:31;;;;;;;1.80;0.50;;;;;;;7.45;100.00;96730.28;5005642;28;20033;-75
2024/02/23 01:30:56;;;;;;;0.17;0.10;;;;;;;7.45;100.00;96685.97;5012466;28;20034;-77
2024/02/23 01:33:22;;;;;;;0.20;0.10;;;;;;;7.36;100.00;96626.38;5007707;28;20281;-78
2024/02/23 01:35:47;;;;;;;1.60;0.10;;;;;;;7.41;100.00;96634.44;5001652;28;20041;-76
2024/02/23 01:38:18;;;;;;;0.17;0.10;;;;;;;7.31;100.00;96578.56;4982047;28;20032;-77
2024/02/23 01:40:44;;;;;;;1.85;0.20;;;;;;;7.07;100.00;96427.59;5003686;28;20092;-77
2024/02/23 01:43:09;;;;;;;0.10;0.10;;;;;;;7.02;100.00;96424.84;5007295;28;20049;-76
2024/02/23 01:45:35;;;;;;;1.80;0.20;;;;;;;6.83;100.00;96341.34;5004555;28;20034;-78
2024/02/23 01:48:00;;;;;;;0.10;0.10;;;;;;;6.81;100.00;96369.94;4991817;28;20056;-77
2024/02/23 01:50:27;;;;;;;0.10;0.10;;;;;;;6.67;100.00;96349.13;5007296;28;20026;-74
2024/02/23 01:52:53;;;;;;;0.73;0.10;;;;;;;6.89;100.00;96418.06;5006750;28;20066;-77
2024/02/23 01:55:20;;;;;;;0.05;0.00;;;;;;;6.71;100.00;96397.91;5006540;28;20030;-77
2024/02/23 01:57:47;;;;;;;0.10;0.10;;;;;;;6.73;100.00;96432.94;5006553;28;20026;-75
2024/02/23 02:00:16;;;;;;;0.30;0.10;;;;;;;6.71;100.00;96445.63;4990053;28;20053;-77
2024/02/23 02:02:49;;;;;;;1.45;0.00;;;;;;;6.63;100.00;96453.19;4990889;28;20029;-78
2024/02/23 02:05:15;;;;;;;0.25;0.00;;;;;;;6.76;100.00;96511.16;5006058;28;20037;-78
2024/02/23 02:07:41;;;;;;;0.40;0.15;;;;;;;6.76;100.00;96495.25;5006675;28;20041;-74
2024/02/23 02:10:09;;;;;;;0.08;0.08;;;;;;;6.67;100.00;96494.88;5007712;28;20030;-77
2024/02/23 02:12:35;;;;;;;0.55;0.10;;;;;;;6.72;100.00;96590.38;5009367;28;20041;-78
2024/02/23 02:15:01;;;;;;;0.82;0.00;;;;;;;6.75;100.00;96579.28;4984864;28;20026;-77
2024/02/23 02:17:30;;;;;;;1.33;0.15;;;;;;;6.57;100.00;96590.09;4985668;28;20040;-77
2024/02/23 02:19:58;;;;;;;0.10;0.10;;;;;;;6.56;100.00;96585.84;5009427;28;20120;-77
2024/02/23 02:22:23;;;;;;;4.18;0.20;;;;;;;6.48;100.00;96587.03;5005182;28;20022;-77
2024/02/23 02:24:49;;;;;;;0.95;0.20;;;;;;;6.49;100.00;96617.78;4999986;28;20037;-77
2024/02/23 02:27:14;;;;;;;0.10;0.10;;;;;;;6.49;100.00;96604.53;4984936;28;20034;-76
2024/02/23 02:29:40;;;;;;;0.10;0.10;;;;;;;6.30;100.00;96603.94;5010530;28;20053;-78
2024/02/23 02:32:06;;;;;;;0.10;0.10;;;;;;;6.43;100.00;96670.91;5009281;28;21225;-77
2024/02/23 02:34:31;;;;;;;0.88;0.10;;;;;;;6.34;100.00;96647.47;4999475;28;20132;-75
2024/02/23 02:36:56;;;;;;;0.17;0.10;;;;;;;6.32;100.00;96660.13;5009974;28;20037;-76
2024/02/23 02:39:22;;;;;;;0.60;0.10;;;;;;;6.37;100.00;96754.81;5004533;28;20030;-76
2024/02/23 02:41:50;;;;;;;0.23;0.20;;;;;;;6.14;100.00;96866.84;5007127;28;20656;-77
2024/02/23 02:44:16;;;;;;;0.57;0.20;;;;;;;6.10;100.00;97000.75;4993611;28;20078;-74
2024/02/23 02:46:42;;;;;;;1.00;0.20;;;;;;;6.02;100.00;97054.03;4993080;28;20042;-76
2024/02/23 02:49:07;;;;;;;2.35;0.20;;;;;;;6.23;100.00;97082.69;5010670;28;20029;-77
2024/02/23 02:51:32;;;;;;;1.20;0.13;;;;;;;6.11;100.00;97034.13;5010416;28;20049;-75
2024/02/23 02:53:58;;;;;;;0.75;0.20;;;;;;;6.13;100.00;96992.34;5009886;28;20068;-78
2024/02/23 02:56:23;;;;;;;0.43;0.13;;;;;;;6.10;100.00;96990.97;4994172;28;20052;-77
2024/02/23 02:58:49;;;;;;;1.65;0.38;;;;;;;5.95;100.00;96902.38;5006954;28;20033;-75
2024/02/23 03:01:14;;;;;;;1.73;0.30;;;;;;;5.86;100.00;96883.34;5010125;28;20040;-77
2024/02/23 03:03:40;;;;;;;0.40;0.10;;;;;;;5.99;100.00;96970.53;5009835;28;20386;-77
2024/02/23 03:06:05;;;;;;;0.70;0.20;;;;;;;5.87;100.00;96959.88;5005607;28;20427;-76
2024/02/23 03:08:31;;;;;;;0.43;0.20;;;;;;;5.79;100.00;96940.88;5008866;28;20041;-75
2024/02/23 03:10:57;;;;;;;0.10;0.10;;;;;;;5.80;100.00;96982.97;5009729;28;20680;-76
2024/02/23 03:13:22;;;;;;;0.35;0.20;;;;;;;5.89;100.00;97031.13;5009664;28;20037;-77
2024/02/23 03:15:47;;;;;;;1.17;0.20;;;;;;;5.81;100.00;96976.69;5004969;28;20018;-77
2024/02/23 03:18:14;;;;;;;0.20;0.20;;;;;;;5.75;100.00;96976.75;5005772;28;20515;-76
2024/02/23 03:20:41;;;;;;;2.55;0.52;;;;;;;5.57;100.00;96879.69;4995915;28;20038;-77
2024/02/23 03:23:07;;;;;;;1.98;0.20;;;;;;;5.63;100.00;96956.34;5000100;28;20032;-77
2024/02/23 03:25:32;;;;;;;2.08;0.22;;;;;;;5.65;100.00;96969.34;5009472;28;20469;-77
2024/02/23 03:27:57;;;;;;;4.50;0.63;;;;;;;5.68;100.00;96955.66;5008332;28;20045;-77
2024/02/23 03:30:23;;;;;;;0.67;0.40;;;;;;;5.50;100.00;96944.09;5003798;28;20022;-77
2024/02/23 03:32:48;;;;;;;1.33;0.22;;;;;;;5.53;100.00;96993.09;4986139;28;20417;-77
2024/02/23 03:35:13;;;;;;;1.90;0.47;;;;;;;5.64;100.00;97036.53;5000810;28;20113;-76
2024/02/23 03:37:39;;;;;;;0.90;0.40;;;;;;;5.47;100.00;97021.25;5002967;28;20034;-78
2024/02/23 03:40:06;;;;;;;2.47;1.27;;;;;;;5.70;100.00;97088.59;4991921;28;20038;-77
2024/02/23 03:42:31;;;;;;;1.67;0.75;;;;;;;5.43;100.00;97029.84;4998968;28;20057;-76
2024/02/23 03:44:56;;;;;;;4.05;1.13;;;;;;;5.28;100.00;97025.72;5007716;28;20527;-77
2024/02/23 03:47:22;;;;;;;2.67;0.52;;;;;;;5.62;100.00;97133.84;5008483;28;20073;-76
2024/02/23 03:49:47;;;;;;;3.83;0.93;;;;;;;5.50;100.00;97070.25;4991153;28;20113;-77
2024/02/23 03:52:13;;;;;;;3.60;0.63;;;;;;;5.43;100.00;97075.63;5004046;28;20786;-77
2024/02/23 03:54:38;;;;;;;3.65;0.47;;;;;;;5.37;100.00;97134.69;4989327;28;20397;-77
2024/02/23 03:57:04;;;;;;;3.97;1.27;;;;;;;5.39;100.00;97216.50;4999686;28;20030;-77
2024/02/23 03:59:29;;;;;;;1.25;0.52;;;;;;;5.33;100.00;97220.00;5008260;28;20034;-77
2024/02/23 04:01:55;;;;;;;1.83;0.50;;;;;;;5.28;100.00;97223.28;4994101;28;20035;-77
2024/02/23 04:04:20;;;;;;;3.03;0.50;;;;;;;5.31;100.00;97257.22;4984815;28;20034;-75
2024/02/23 04:06:46;;;;;;;2.03;0.40;;;;;;;5.42;100.00;97285.66;4981968;28;20033;-74
2024/02/23 04:09:11;;;;;;;2.00;0.50;;;;;;;5.52;100.00;97287.00;5003520;28;20033;-77
2024/02/23 04:11:36;;;;;;;0.20;0.15;;;;;;;5.47;100.00;97256.72;5001713;28;20056;-77
2024/02/23 04:14:02;;;;;;;1.50;0.53;;;;;;;5.46;100.00;97270.16;5007664;28;20042;-76
2024/02/23 04:16:28;;;;;;;1.53;0.43;;;;;;;5.24;100.00;97201.75;5008333;28;20281;-77
2024/02/23 04:18:54;;;;;;;3.90;0.60;;;;;;;5.22;100.00;97232.06;5008327;28;20050;-77
2024/02/23 04:21:20;;;;;;;4.18;0.52;;;;;;;5.23;100.00;97249.56;5001158;28;20591;-76
2024/02/23 04:23:45;;;;;;;1.00;0.40;;;;;;;5.39;100.00;97285.28;4989994;28;20128;-77
2024/02/23 04:26:11;;;;;;;1.75;0.65;;;;;;;5.55;100.00;97281.28;5007826;28;20112;-75
2024/02/23 04:28:40;;;;;;;2.95;0.70;;;;;;;5.48;100.00;97247.75;4997460;28;20014;-75
2024/02/23 04:31:06;;;;;;;2.55;0.40;;;;;;;5.41;100.00;97178.22;4998490;28;20049;-75
2024/02/23 04:33:32;;;;;;;1.02;0.38;;;;;;;5.40;100.00;97197.75;4999704;28;20121;-77
2024/02/23 04:35:58;;;;;;;4.40;0.77;;;;;;;5.48;100.00;97200.13;4999850;28;20507;-77
2024/02/23 04:38:23;;;;;;;2.80;0.60;;;;;;;5.51;100.00;97175.06;5006309;28;20069;-77
2024/02/23 04:40:48;;;;;;;3.47;1.27;;;;;;;5.39;100.00;97123.91;4999103;28;20029;-76
2024/02/23 04:43:14;;;;;;;2.93;0.60;;;;;;;5.59;100.00;97203.09;4984413;28;20038;-77
2024/02/23 04:45:39;;;;;;;4.87;0.77;;;;;;;5.49;100.00;97177.94;4989412;28;20276;-77
2024/02/23 04:48:05;;;;;;;0.77;0.50;;;;;;;5.75;100.00;97231.66;4998447;28;20041;-75
2024/02/23 04:50:30;;;;;;;1.92;0.60;;;;;;;5.80;100.00;97205.34;4990529;28;20296;-77
2024/02/23 04:52:55;;;;;;;4.30;1.20;;;;;;;5.59;100.00;97127.16;4999979;28;20128;-74
2024/02/23 04:55:21;;;;;;;3.13;1.43;;;;;;;5.42;100.00;97087.25;5001670;28;20069;-74
2024/02/23 04:57:46;;;;;;;4.73;0.93;;;;;;;5.53;100.00;97092.84;5002053;28;20279;-77
2024/02/23 05:00:12;;;;;;;7.10;1.87;;;;;;;5.57;100.00;97100.13;5000408;28;20039;-77
2024/02/23 05:02:37;;;;;;;3.90;1.67;;;;;;;5.37;100.00;97071.22;4986401;28;20020;-76
2024/02/23 05:05:04;;;;;;;7.03;1.23;;;;;;;5.39;100.00;97081.59;4991291;28;20041;-75
2024/02/23 05:07:33;;;;;;;6.30;1.23;;;;;;;5.41;100.00;97106.78;5002192;28;20087;-77
2024/02/23 05:09:58;;;;;;;6.63;1.15;;;;;;;5.39;100.00;97105.41;5005204;28;20455;-77
2024/02/23 05:12:24;;;;;;;14.03;2.23;;;;;;;5.32;100.00;97088.78;5003485;28;20125;-77
2024/02/23 05:14:49;;;;;;;12.33;2.63;;;;;;;5.22;100.00;97057.53;4995936;28;20265;-75
2024/02/23 05:17:14;;;;;;;3.58;1.30;;;;;;;5.21;100.00;97005.66;4994996;28;20041;-77
2024/02/23 05:19:39;;;;;;;6.87;1.63;;;;;;;5.23;100.00;97033.50;5006543;28;20033;-77
2024/02/23 05:22:05;;;;;;;3.67;1.53;;;;;;;5.13;100.00;97000.66;5004760;28;20049;-76
2024/02/23 05:24:30;;;;;;;7.03;1.43;;;;;;;5.31;100.00;97068.63;4991535;28;20121;-75
2024/02/23 05:26:57;;;;;;;3.40;1.25;;;;;;;5.40;100.00;97105.16;4999486;28;20277;-75
2024/02/23 05:29:23;;;;;;;8.13;1.77;;;;;;;5.16;100.00;97047.84;5006336;28;20033;-77
2024/02/23 05:31:52;;;;;;;10.93;1.20;;;;;;;5.25;100.00;97086.19;5006567;28;20160;-77
2024/02/23 05:34:18;;;;;;;5.85;1.45;;;;;;;5.19;100.00;97079.13;5006282;28;20113;-76
2024/02/23 05:36:43;;;;;;;7.80;1.92;;;;;;;5.37;100.00;97144.47;4997026;28;21056;-76
2024/02/23 05:39:09;;;;;;;6.88;1.77;;;;;;;5.34;100.00;97155.47;4995266;28;20065;-77
2024/02/23 05:41:36;;;;;;;4.28;1.50;;;;;;;5.07;100.00;97100.19;4996740;28;20109;-77
2024/02/23 05:44:05;;;;;;;4.88;1.33;;;;;;;5.23;100.00;97181.59;4999374;28;20485;-76
2024/02/23 05:46:31;;;;;;;3.97;1.02;;;;;;;5.33;100.00;97233.22;4994975;28;20022;-75
2024/02/23 05:48:57;;;;;;;5.55;2.20;;;;;;;5.56;100.00;97261.75;5008427;28;20077;-77
2024/02/23 05:51:22;;;;;;;9.38;1.50;;;;;;;5.23;100.00;97175.53;5002997;28;20022;-77
2024/02/23 05:53:47;;;;;;;3.40;1.43;;;;;;;5.32;100.00;97231.63;5006010;28;20129;-77
2024/02/23 05:56:13;;;;;;;3.40;1.20;;;;;;;5.43;100.00;97297.03;5001344;28;20632;-77
2024/02/23 05:58:38;;;;;;;9.88;2.35;;;;;;;5.24;100.00;97261.75;5000961;28;20515;-76
2024/02/23 06:01:04;;;;;;;5.03;1.40;;;;;;;5.14;100.00;97261.44;4994069;28;20030;-75
2024/02/23 06:03:29;;;;;;;4.37;1.33;;;;;;;5.41;100.00;97326.38;4989725;28;20552;-74
2024/02/23 06:05:54;;;;;;;3.77;1.50;;;;;;;5.11;100.00;97214.25;4996453;28;20346;-75
2024/02/23 06:08:20;;;;;;;4.30;1.30;;;;;;;5.41;100.00;97315.78;5008852;28;21219;-77
2024/02/23 06:10:45;;;;;;;4.05;1.20;;;;;;;5.03;100.00;97202.09;5008010;28;20323;-75
2024/02/23 06:13:11;;;;;;;5.43;2.65;;;;;;;5.13;100.00;97228.06;4996021;28;20053;-76
2024/02/23 06:15:36;;;;;;;6.60;2.37;;;;;;;5.37;100.00;97245.81;5006848;28;20044;-76
2024/02/23 06:18:01;;;;;;;3.97;2.00;;;;;;;5.11;100.00;97187.81;4985935;28;20285;-77
2024/02/23 06:20:27;;;;;;;6.72;1.48;;;;;;;5.11;100.00;97185.19;5009484;28;20488;-77
2024/02/23 06:22:52;;;;;;;3.03;1.50;;;;;;;5.32;100.00;97221.84;5010217;28;20054;-77
2024/02/23 06:25:17;;;;;;;3.93;1.93;;;;;;;5.38;100.00;97297.66;5010877;28;20675;-78
2024/02/23 06:27:43;;;;;;;4.60;2.22;;;;;;;5.22;100.00;97206.44;5009411;28;20071;-77
2024/02/23 06:30:10;;;;;;;2.30;1.30;;;;;;;5.20;100.00;97205.03;5005160;28;20034;-77
2024/02/23 06:32:36;;;;;;;6.80;1.98;;;;;;;5.27;100.00;97225.13;4992321;28;20125;-74
2024/02/23 06:35:02;;;;;;;7.35;2.20;;;;;;;5.31;100.00;97201.69;5006799;28;20113;-77
2024/02/23 06:37:28;;;;;;;3.67;2.00;;;;;;;5.29;100.00;97201.09;5009081;28;20030;-78
2024/02/23 06:39:54;;;;;;;4.13;1.63;;;;;;;5.42;100.00;97248.63;4993137;28;20586;-77
2024/02/23 06:42:20;;;;;;;6.00;2.08;;;;;;;5.15;100.00;97226.00;5008670;28;20034;-78
2024/02/23 06:44:47;;;;;;;4.55;1.50;;;;;;;5.24;100.00;97230.03;5002815;28;20057;-74
2024/02/23 06:47:12;;;;;;;;;;;;;;;5.28;100.00;97249.72;4995976;28;20041;-76
2024/02/23 06:49:42;;;;;;;4.57;1.50;;;;;;;5.32;100.00;97240.34;4987838;28;19913;-77
2024/02/23 06:52:07;;;;;;;11.10;1.95;;;;;;;5.35;100.00;97220.59;5000782;28;20449;-76
2024/02/23 06:54:32;;;;;;;4.87;1.73;;;;;;;5.21;100.00;97193.44;5000639;28;20109;-77
2024/02/23 06:56:58;;;;;;;4.07;1.75;;;;;;;5.35;100.00;97184.38;5007574;28;20113;-77
2024/02/23 06:59:24;;;;;;;4.27;1.70;;;;;;;5.50;100.00;97235.13;4972905;28;20030;-77
2024/02/23 07:01:50;;;;;;;15.95;3.33;;;;;;;5.54;100.00;97173.84;4996748;28;20764;-77
2024/02/23 07:04:16;;;;;;;4.22;2.25;;;;;;;5.32;100.00;97139.84;4998258;28;20049;-75
2024/02/23 07:06:41;;;;;;;14.80;2.17;;;;;;;5.34;100.00;97131.66;5002157;28;20030;-75
2024/02/23 07:09:06;;;;;;;4.40;1.40;;;;;;;5.42;100.00;97128.75;5003483;28;20041;-76
2024/02/23 07:11:32;;;;;;;6.60;1.50;;;;;;;5.35;100.00;97101.56;4995361;28;20053;-77
2024/02/23 07:13:57;;;;;;;8.90;1.80;;;;;;;5.10;100.00;97038.13;4980997;28;20293;-76
2024/02/23 07:16:22;;;;;;;7.17;1.50;;;;;;;5.32;100.00;97110.75;4990598;28;20469;-77
2024/02/23 07:18:48;;;;;;;6.20;1.20;;;;;;;5.39;100.00;97100.91;4996202;28;20045;-78
2024/02/23 07:21:13;;;;;;;4.90;1.27;;;;;;;5.44;100.00;97153.97;5007500;28;20269;-77
2024/02/23 07:23:38;;;;;;;6.03;1.27;;;;;;;5.66;100.00;97169.44;4995698;28;20095;-77
2024/02/23 07:26:04;;;;;;;2.85;1.50;;;;;;;5.69;100.00;97233.34;5008084;28;20116;-77
2024/02/23 07:28:29;;;;;;;4.97;1.37;;;;;;;5.74;100.00;97161.22;5009004;28;20030;-77
2024/02/23 07:30:54;;;;;;;2.70;1.30;;;;;;;5.53;100.00;97032.00;5009264;28;20144;-78
2024/02/23 07:33:20;;;;;;;3.77;1.07;;;;;;;5.51;100.00;97090.41;5009195;28;20068;-77
2024/02/23 07:35:46;;;;;;;4.05;1.65;;;;;;;5.47;100.00;97099.81;5008492;28;20289;-75
2024/02/23 07:38:11;;;;;;;5.70;1.43;;;;;;;5.63;100.00;97133.63;5008804;28;20046;-76
2024/02/23 07:40:36;;;;;;;5.10;2.07;;;;;;;5.44;100.00;97073.81;4979627;28;20038;-77
2024/02/23 07:43:02;;;;;;;6.07;1.40;;;;;;;5.70;100.00;97163.50;5006653;28;20049;-76
2024/02/23 07:45:27;;;;;;;4.67;1.63;;;;;;;5.57;100.00;97118.66;4979133;28;20029;-77
2024/02/23 07:47:52;;;;;;;3.05;1.85;;;;;;;5.44;100.00;97089.66;5008255;28;20041;-77
2024/02/23 07:50:19;;;;;;;5.30;1.67;;;;;;;5.63;100.00;97188.41;5006394;28;20041;-75
2024/02/23 07:52:44;;;;;;;;;;;;;;;5.54;100.00;97142.09;5008307;28;20029;-76
2024/02/23 07:55:09;;;;;;;11.48;1.95;;;;;;;5.25;100.00;97096.78;5006800;28;19917;-76
2024/02/23 07:57:35;;;;;;;3.13;1.80;;;;;;;5.31;100.00;97114.41;5008007;28;20472;-77
2024/02/23 08:00:00;;;;;;;5.03;2.00;;;;;;;5.71;100.00;97233.09;5006299;28;20038;-75
2024/02/23 08:02:26;;;;;;;5.78;1.55;;;;;;;5.49;100.00;97196.44;5002556;28;20413;-73
2024/02/23 08:04:52;;;;;;;4.25;1.63;;;;;;;5.66;100.00;97206.50;5005980;28;20026;-73
2024/02/23 08:07:17;;;;;;;5.93;1.80;;;;;;;5.40;100.00;97125.53;5005894;28;20496;-77
2024/02/23 08:09:43;;;;;;;7.32;2.67;;;;;;;5.85;100.00;97236.44;5012130;28;20030;-77
2024/02/23 08:12:08;;;;;;;3.20;1.73;;;;;;;6.23;100.00;97241.63;5004383;28;20113;-77
2024/02/23 08:14:33;;;;;;;11.10;2.53;;;;;;;7.31;100.00;97257.81;4983987;28;20285;-76
2024/02/23 08:16:59;;;;;;;9.57;2.03;;;;;;;6.65;100.00;96857.41;5008093;28;20029;-77
2024/02/23 08:19:25;;;;;;;6.70;1.80;;;;;;;6.56;100.00;96850.84;5007731;28;20936;-77
2024/02/23 08:21:50;;;;;;;10.38;2.45;;;;;;;7.02;100.00;96901.38;5000818;28;20034;-75
2024/02/23 08:24:15;;;;;;;6.03;2.50;;;;;;;6.60;100.00;96804.28;5008145;28;20033;-74
2024/02/23 08:26:41;;;;;;;10.23;3.10;;;;;;;7.42;100.00;96980.19;5006429;28;20076;-75
2024/02/23 08:29:08;;;;;;;;;;;;;;;7.01;100.00;96741.47;4990785;28;20460;-77
2024/02/23 08:31:34;;;;;;;2.95;1.77;;;;;;;6.40;100.00;96631.66;5017052;28;19913;-78
2024/02/23 08:33:59;;;;;;;6.40;1.73;;;;;;;6.48;100.00;96820.19;4994302;28;20034;-77
2024/02/23 08:36:24;;;;;;;8.17;2.13;;;;;;;6.59;100.00;96813.28;5007086;28;20049;-76
2024/02/23 08:38:50;;;;;;;4.88;2.05;;;;;;;7.24;100.00;96877.69;5000836;28;20046;-76
2024/02/23 08:41:15;;;;;;;5.30;1.90;;;;;;;7.25;100.00;96816.44;4999176;28;20049;-74
2024/02/23 08:43:40;;;;;;;6.43;1.50;;;;;;;7.36;100.00;96719.25;5006289;28;20044;-74
2024/02/23 08:46:06;;;;;;;4.63;2.00;;;;;;;8.19;100.00;96828.34;5001455;28;20034;-75
2024/02/23 08:48:31;;;;;;;5.60;2.03;;;;;;;8.06;100.00;96619.66;5008134;28;20073;-78
2024/02/23 08:50:57;;;;;;;8.03;1.90;;;;;;;7.93;100.00;96623.47;5008053;28;20057;-75
2024/02/23 08:53:22;;;;;;;5.70;1.57;;;;;;;7.65;100.00;96469.66;5008125;28;20544;-76
2024/02/23 08:55:47;;;;;;;4.43;1.80;;;;;;;7.37;100.00;96575.75;5005595;28;20281;-76
2024/02/23 08:58:13;;;;;;;4.10;2.13;;;;;;;7.74;100.00;96600.91;4999402;28;20041;-76
2024/02/23 09:00:38;;;;;;;6.23;1.83;;;;;;;7.93;100.00;96594.25;5007414;28;20521;-76
2024/02/23 09:03:04;;;;;;;4.93;1.83;;;;;;;6.95;100.00;96236.78;5006332;28;20398;-77
2024/02/23 09:05:29;;;;;;;11.75;3.38;;;;;;;8.06;100.00;96783.53;5007002;28;20033;-76
2024/02/23 09:07:55;;;;;;;6.57;2.17;;;;;;;7.21;100.00;96390.06;5006867;28;20135;-77
2024/02/23 09:10:20;;;;;;;4.22;2.00;;;;;;;7.68;100.00;96599.22;5005261;28;20050;-74
2024/02/23 09:12:46;;;;;;;5.82;1.90;;;;;;;7.16;100.00;96367.75;5004798;28;20105;-76
2024/02/23 09:15:11;;;;;;;5.70;1.70;;;;;;;7.57;100.00;96848.59;5004974;28;20091;-77
2024/02/23 09:17:37;;;;;;;6.32;2.30;;;;;;;8.62;100.00;96691.28;5007045;28;20040;-75
2024/02/23 09:20:02;;;;;;;6.38;1.92;;;;;;;9.86;100.00;96641.50;5006329;28;20042;-77
2024/02/23 09:22:27;;;;;;;6.38;1.85;;;;;;;9.37;100.00;96329.50;5007341;28;20029;-77
2024/02/23 09:24:53;;;;;;;4.63;2.07;;;;;;;9.97;100.00;96343.94;5005701;28;20407;-77
2024/02/23 09:27:21;;;;;;;5.40;1.53;;;;;;;10.81;100.00;96277.72;5007721;28;20029;-78
2024/02/23 09:29:46;;;;;;;5.78;1.77;;;;;;;9.89;100.00;96046.16;4990793;28;20029;-77
2024/02/23 09:32:12;;;;;;;3.63;2.20;;;;;;;9.82;100.00;96083.72;5006886;28;20045;-77
2024/02/23 09:34:37;;;;;;;3.97;1.20;;;;;;;10.36;100.00;96186.16;5007963;28;20034;-76
2024/02/23 09:37:02;;;;;;;8.80;1.73;;;;;;;10.52;98.81;96138.91;4999880;28;20038;-77
2024/02/23 09:39:30;;;;;;;8.83;1.77;;;;;;;9.83;96.77;95844.81;5006229;28;20048;-76
2024/02/23 09:41:56;;;;;;;7.72;1.45;;;;;;;10.48;96.55;96044.53;5006316;28;20029;-77
2024/02/23 09:44:22;;;;;;;8.73;2.40;;;;;;;10.07;93.47;95762.34;4977079;28;20596;-77
2024/02/23 09:46:48;;;;;;;4.93;2.30;;;;;;;9.43;93.58;95785.44;5007582;28;20030;-75
2024/02/23 09:49:15;;;;;;;4.10;1.85;;;;;;;9.10;95.83;96008.56;4993621;28;20037;-77
2024/02/23 09:51:41;;;;;;;8.95;1.77;;;;;;;8.65;96.68;95986.25;5007560;28;20033;-75
2024/02/23 09:54:06;;;;;;;9.57;1.98;;;;;;;7.58;100.00;96104.38;5006424;28;20037;-75
2024/02/23 09:56:33;;;;;;;3.70;1.65;;;;;;;8.08;100.00;96390.94;4993192;28;20030;-75
2024/02/23 09:59:01;;;;;;;5.18;1.60;;;;;;;7.60;100.00;96358.91;5005139;28;20030;-77
2024/02/23 10:01:32;;;;;;;5.55;1.77;;;;;;;7.63;100.00;96477.84;5006717;28;20036;-74
2024/02/23 10:04:00;;;;;;;5.65;1.90;;;;;;;7.75;100.00;96586.56;4993193;28;20034;-77
2024/02/23 10:06:26;;;;;;;5.18;1.80;;;;;;;7.71;100.00;96527.06;5005535;28;20087;-75
2024/02/23 10:08:53;;;;;;;;;;;;;;;7.59;100.00;96567.81;5005924;28;20485;-76
2024/02/23 10:11:20;;;;;;;9.35;3.30;;;;;;;7.36;100.00;96878.47;4988444;28;19920;-77
2024/02/23 10:13:49;;;;;;;9.85;3.33;;;;;;;7.07;100.00;96777.66;5003859;28;20113;-73
2024/02/23 10:16:15;;;;;;;4.82;2.00;;;;;;;7.69;100.00;97114.03;4987685;28;20049;-77
2024/02/23 10:18:40;;;;;;;4.05;2.22;;;;;;;7.90;100.00;97040.91;5006194;28;20034;-75
2024/02/23 10:21:06;;;;;;;6.57;2.00;;;;;;;8.01;100.00;97031.31;5005852;28;20068;-74
2024/02/23 10:23:31;;;;;;;4.82;2.65;;;;;;;8.61;100.00;97104.44;5005878;28;20044;-77
2024/02/23 10:25:57;;;;;;;6.30;2.10;;;;;;;8.73;100.00;96911.06;5005782;28;20041;-77
2024/02/23 10:28:22;;;;;;;13.20;2.40;;;;;;;9.00;100.00;97116.03;5005533;28;20053;-77
2024/02/23 10:30:48;;;;;;;1.90;1.13;;;;;;;8.71;100.00;96724.38;4999141;28;20033;-76
2024/02/23 10:33:14;;;;;;;8.40;1.92;;;;;;;9.49;100.00;96857.19;4986836;28;20047;-77
2024/02/23 10:35:42;;;;;;;6.55;1.92;;;;;;;9.10;100.00;96564.59;5008890;28;20625;-77
2024/02/23 10:38:11;;;;;;;6.28;1.90;;;;;;;8.91;100.00;96590.00;4989584;28;20046;-77
2024/02/23 10:40:40;;;;;;;6.18;1.95;;;;;;;9.04;100.00;96491.13;5009816;28;20036;-76
2024/02/23 11:24:27;;;;;;;6.65;1.75;;;;;;;8.34;98.80;96506.25;5004489;28;20034;-77
2024/02/23 11:26:56;;;;;;;5.55;1.10;;;;;;;8.28;98.43;96480.66;5008404;28;20069;-77
2024/02/23 11:29:22;;;;;;;6.10;1.88;;;;;;;8.86;97.92;96596.84;5002636;28;20026;-77
2024/02/23 11:31:47;;;;;;;8.60;2.07;;;;;;;9.14;96.06;96544.41;5008925;28;20481;-77
2024/02/23 11:34:13;;;;;;;17.83;2.58;;;;;;;8.49;95.46;96266.38;5007040;28;20073;-76
2024/02/23 11:36:38;;;;;;;1.97;1.00;;;;;;;7.77;94.88;96067.59;5006940;28;20038;-75
2024/02/23 11:39:05;;;;;;;25.10;2.47;;;;;;;7.71;96.43;96249.13;4995169;28;20066;-76
2024/02/23 11:41:30;;;;;;;;;;;;;;;7.71;97.06;96307.53;5000305;28;20041;-75
2024/02/23 11:43:58;;;;;;;3.17;1.40;;;;;;;7.54;97.90;96342.16;5007483;28;19921;-75
2024/02/23 11:46:23;;;;;;;5.28;1.00;;;;;;;7.75;99.33;96533.47;5007535;28;20116;-76
2024/02/23 11:48:55;;;;;;;4.80;1.20;;;;;;;7.83;96.99;96368.44;5008430;28;20588;-77
2024/02/23 11:51:21;;;;;;;5.05;1.13;;;;;;;8.16;97.58;96497.56;5007204;28;20030;-74
2024/02/23 11:53:47;;;;;;;6.30;1.30;;;;;;;8.39;97.02;96507.09;5006705;28;20042;-77
2024/02/23 11:56:13;;;;;;;;;;;;;;;7.96;96.49;96346.78;4990156;28;20900;-77
2024/02/23 11:58:40;;;;;;;6.70;1.45;;;;;;;8.87;95.08;96534.66;5006987;28;19992;-77
2024/02/23 12:01:06;;;;;;;2.22;1.23;;;;;;;9.06;93.34;96366.63;5006248;28;20068;-73
2024/02/23 12:03:32;;;;;;;4.30;1.15;;;;;;;8.34;93.96;96230.69;5006286;28;20663;-77
2024/02/23 12:05:59;;;;;;;8.45;1.58;;;;;;;8.41;95.16;96417.31;5005604;28;20042;-76
2024/02/23 12:08:32;;;;;;;4.47;1.50;;;;;;;8.71;94.47;96407.94;5006699;28;20026;-77